sensor_id;sensor_type;location;lat;lon;timestamp;temperature;humidity
3275;DHT22;1649;53.672;10.064;2023-01-01T00:00:45;14.70;99.90
3275;DHT22;1649;53.672;10.064;2023-01-01T00:03:11;14.70;99.90
3275;DHT22;1649;53.672;10.064;2023-01-01T00:05:39;14.70;99.90
3275;DHT22;1649;53.672;10.064;2023-01-01T00:08:05;14.80;99.90
3275;DHT22;1649;53.672;10.064;2023-01-01T00:10:32;14.70;99.90
3275;DHT22;1649;53.672;10.064;2023-01-01T00:12:58;14.70;99.90
3275;DHT22;1649;53.672;10.064;2023-01-01T00:15:25;14.70;99.90
3275;DHT22;1649;53.672;10.064;2023-01-01T00:17:52;14.70;99.90
3275;DHT22;1649;53.672;10.064;2023-01-01T00:20:17;14.80;99.90
3275;DHT22;1649;53.672;10.064;2023-01-01T00:22:43;14.80;99.90
3275;DHT22;1649;53.672;10.064;2023-01-01T00:25:10;14.90;99.90
3275;DHT22;1649;53.672;10.064;2023-01-01T00:27:38;14.80;99.90
3275;DHT22;1649;53.672;10.064;2023-01-01T00:30:04;14.80;99.90
3275;DHT22;1649;53.672;10.064;2023-01-01T00:32:29;14.80;99.90
3275;DHT22;1649;53.672;10.064;2023-01-01T00:34:55;14.80;99.90
3275;DHT22;1649;53.672;10.064;2023-01-01T00:37:20;14.80;99.90
3275;DHT22;1649;53.672;10.064;2023-01-01T00:39:46;14.80;99.90
3275;DHT22;1649;53.672;10.064;2023-01-01T00:42:11;14.80;99.90
3275;DHT22;1649;53.672;10.064;2023-01-01T00:44:36;14.90;99.90
3275;DHT22;1649;53.672;10.064;2023-01-01T00:47:02;14.90;99.90
3275;DHT22;1649;53.672;10.064;2023-01-01T00:49:27;14.90;99.90
3275;DHT22;1649;53.672;10.064;2023-01-01T00:51:53;14.90;99.90
3275;DHT22;1649;53.672;10.064;2023-01-01T00:54:19;15.00;99.90
3275;DHT22;1649;53.672;10.064;2023-01-01T00:56:44;15.00;99.90
3275;DHT22;1649;53.672;10.064;2023-01-01T00:59:10;14.90;99.90
3275;DHT22;1649;53.672;10.064;2023-01-01T01:01:35;14.90;99.90
3275;DHT22;1649;53.672;10.064;2023-01-01T01:04:02;14.80;99.90
3275;DHT22;1649;53.672;10.064;2023-01-01T01:06:28;14.80;99.90
3275;DHT22;1649;53.672;10.064;2023-01-01T01:08:54;14.80;99.90
3275;DHT22;1649;53.672;10.064;2023-01-01T01:11:21;14.90;99.90
3275;DHT22;1649;53.672;10.064;2023-01-01T01:13:50;14.80;99.90
3275;DHT22;1649;53.672;10.064;2023-01-01T01:16:18;14.90;99.90
3275;DHT22;1649;53.672;10.064;2023-01-01T01:18:45;15.00;99.90
3275;DHT22;1649;53.672;10.064;2023-01-01T01:21:14;15.00;99.90
3275;DHT22;1649;53.672;10.064;2023-01-01T01:23:40;15.00;99.90
3275;DHT22;1649;53.672;10.064;2023-01-01T01:26:14;15.00;99.90
3275;DHT22;1649;53.672;10.064;2023-01-01T01:28:40;15.00;99.90
3275;DHT22;1649;53.672;10.064;2023-01-01T01:31:07;15.00;99.90
3275;DHT22;1649;53.672;10.064;2023-01-01T01:33:33;15.00;99.90
3275;DHT22;1649;53.672;10.064;2023-01-01T01:36:00;15.00;99.90
3275;DHT22;1649;53.672;10.064;2023-01-01T01:38:26;15.00;99.90
3275;DHT22;1649;53.672;10.064;2023-01-01T01:40:51;15.00;99.90
3275;DHT22;1649;53.672;10.064;2023-01-01T01:43:24;15.00;99.90
3275;DHT22;1649;53.672;10.064;2023-01-01T01:45:57;15.00;99.90
3275;DHT22;1649;53.672;10.064;2023-01-01T01:48:24;14.90;99.90
3275;DHT22;1649;53.672;10.064;2023-01-01T01:50:50;14.90;99.90
3275;DHT22;1649;53.672;10.064;2023-01-01T01:53:23;14.90;99.90
3275;DHT22;1649;53.672;10.064;2023-01-01T01:56:02;14.90;99.90
3275;DHT22;1649;53.672;10.064;2023-01-01T01:58:30;14.90;99.90
3275;DHT22;1649;53.672;10.064;2023-01-01T02:00:56;14.90;99.90
3275;DHT22;1649;53.672;10.064;2023-01-01T02:06:12;14.90;99.90
3275;DHT22;1649;53.672;10.064;2023-01-01T02:08:38;14.90;99.90
3275;DHT22;1649;53.672;10.064;2023-01-01T02:11:03;14.90;99.90
3275;DHT22;1649;53.672;10.064;2023-01-01T02:13:29;14.90;99.90
3275;DHT22;1649;53.672;10.064;2023-01-01T02:16:13;14.90;99.90
3275;DHT22;1649;53.672;10.064;2023-01-01T02:19:06;15.00;99.90
3275;DHT22;1649;53.672;10.064;2023-01-01T02:30:09;15.00;99.90
3275;DHT22;1649;53.672;10.064;2023-01-01T02:32:50;14.90;99.90
3275;DHT22;1649;53.672;10.064;2023-01-01T02:35:38;14.90;99.90
3275;DHT22;1649;53.672;10.064;2023-01-01T02:38:35;14.80;99.90
3275;DHT22;1649;53.672;10.064;2023-01-01T02:41:05;14.70;99.90
3275;DHT22;1649;53.672;10.064;2023-01-01T02:43:32;14.70;99.90
3275;DHT22;1649;53.672;10.064;2023-01-01T02:45:57;14.70;99.90
3275;DHT22;1649;53.672;10.064;2023-01-01T02:48:41;14.70;99.90
3275;DHT22;1649;53.672;10.064;2023-01-01T02:51:34;14.70;99.90
3275;DHT22;1649;53.672;10.064;2023-01-01T03:04:56;14.90;99.90
3275;DHT22;1649;53.672;10.064;2023-01-01T03:08:00;14.90;99.90
3275;DHT22;1649;53.672;10.064;2023-01-01T03:13:25;14.80;99.90
3275;DHT22;1649;53.672;10.064;2023-01-01T03:16:01;14.80;99.90
3275;DHT22;1649;53.672;10.064;2023-01-01T03:18:38;14.80;99.90
3275;DHT22;1649;53.672;10.064;2023-01-01T03:21:06;14.80;99.90
3275;DHT22;1649;53.672;10.064;2023-01-01T03:23:42;14.80;99.90
3275;DHT22;1649;53.672;10.064;2023-01-01T03:26:11;14.70;99.90
3275;DHT22;1649;53.672;10.064;2023-01-01T03:28:47;14.70;99.90
3275;DHT22;1649;53.672;10.064;2023-01-01T03:31:17;14.60;99.90
3275;DHT22;1649;53.672;10.064;2023-01-01T03:33:50;14.50;99.90
3275;DHT22;1649;53.672;10.064;2023-01-01T03:36:43;14.50;99.90
3275;DHT22;1649;53.672;10.064;2023-01-01T03:39:31;14.50;99.90
3275;DHT22;1649;53.672;10.064;2023-01-01T03:42:04;14.40;99.90
3275;DHT22;1649;53.672;10.064;2023-01-01T03:44:51;14.40;99.90
3275;DHT22;1649;53.672;10.064;2023-01-01T03:47:18;14.50;99.90
3275;DHT22;1649;53.672;10.064;2023-01-01T03:49:45;14.50;99.90
3275;DHT22;1649;53.672;10.064;2023-01-01T03:55:13;14.60;99.90
3275;DHT22;1649;53.672;10.064;2023-01-01T04:00:34;14.60;99.90
3275;DHT22;1649;53.672;10.064;2023-01-01T04:03:13;14.60;99.90
3275;DHT22;1649;53.672;10.064;2023-01-01T04:05:41;14.60;99.90
3275;DHT22;1649;53.672;10.064;2023-01-01T04:08:08;14.60;99.90
3275;DHT22;1649;53.672;10.064;2023-01-01T04:10:37;14.60;99.90
3275;DHT22;1649;53.672;10.064;2023-01-01T04:13:05;14.50;99.90
3275;DHT22;1649;53.672;10.064;2023-01-01T04:15:31;14.50;99.90
3275;DHT22;1649;53.672;10.064;2023-01-01T04:17:57;14.50;99.90
3275;DHT22;1649;53.672;10.064;2023-01-01T04:20:24;14.50;99.90
3275;DHT22;1649;53.672;10.064;2023-01-01T04:22:50;14.40;99.90
3275;DHT22;1649;53.672;10.064;2023-01-01T04:25:16;14.50;99.90
3275;DHT22;1649;53.672;10.064;2023-01-01T04:27:44;14.50;99.90
3275;DHT22;1649;53.672;10.064;2023-01-01T04:30:11;14.50;99.90
3275;DHT22;1649;53.672;10.064;2023-01-01T04:32:37;14.50;99.90
3275;DHT22;1649;53.672;10.064;2023-01-01T04:35:04;14.50;99.90
3275;DHT22;1649;53.672;10.064;2023-01-01T04:37:29;14.40;99.90
3275;DHT22;1649;53.672;10.064;2023-01-01T04:39:55;14.40;99.90
3275;DHT22;1649;53.672;10.064;2023-01-01T04:42:20;14.40;99.90
3275;DHT22;1649;53.672;10.064;2023-01-01T04:44:46;14.40;99.90
3275;DHT22;1649;53.672;10.064;2023-01-01T04:47:11;14.40;99.90
3275;DHT22;1649;53.672;10.064;2023-01-01T04:49:37;14.30;99.90
3275;DHT22;1649;53.672;10.064;2023-01-01T04:52:03;14.40;99.90
3275;DHT22;1649;53.672;10.064;2023-01-01T04:54:28;14.30;99.90
3275;DHT22;1649;53.672;10.064;2023-01-01T04:56:54;14.40;99.90
3275;DHT22;1649;53.672;10.064;2023-01-01T04:59:19;14.40;99.90
3275;DHT22;1649;53.672;10.064;2023-01-01T05:01:45;14.30;99.90
3275;DHT22;1649;53.672;10.064;2023-01-01T05:04:13;14.30;99.90
3275;DHT22;1649;53.672;10.064;2023-01-01T05:06:39;14.40;99.90
3275;DHT22;1649;53.672;10.064;2023-01-01T05:09:04;14.40;99.90
3275;DHT22;1649;53.672;10.064;2023-01-01T05:11:30;14.40;99.90
3275;DHT22;1649;53.672;10.064;2023-01-01T05:14:01;14.40;99.90
3275;DHT22;1649;53.672;10.064;2023-01-01T05:16:28;14.40;99.90
3275;DHT22;1649;53.672;10.064;2023-01-01T05:18:54;14.40;99.90
3275;DHT22;1649;53.672;10.064;2023-01-01T05:21:31;14.40;99.90
3275;DHT22;1649;53.672;10.064;2023-01-01T05:24:02;14.50;99.90
3275;DHT22;1649;53.672;10.064;2023-01-01T05:26:30;14.50;99.90
3275;DHT22;1649;53.672;10.064;2023-01-01T05:28:57;14.50;99.90
3275;DHT22;1649;53.672;10.064;2023-01-01T05:31:25;14.50;99.90
3275;DHT22;1649;53.672;10.064;2023-01-01T05:33:51;14.50;99.90
3275;DHT22;1649;53.672;10.064;2023-01-01T05:36:19;14.50;99.90
3275;DHT22;1649;53.672;10.064;2023-01-01T05:38:45;14.50;99.90
3275;DHT22;1649;53.672;10.064;2023-01-01T05:41:13;14.60;99.90
3275;DHT22;1649;53.672;10.064;2023-01-01T05:43:39;14.60;99.90
3275;DHT22;1649;53.672;10.064;2023-01-01T05:46:10;14.60;99.90
3275;DHT22;1649;53.672;10.064;2023-01-01T05:48:36;14.60;99.90
3275;DHT22;1649;53.672;10.064;2023-01-01T05:51:07;14.60;99.90
3275;DHT22;1649;53.672;10.064;2023-01-01T05:53:33;14.60;99.90
3275;DHT22;1649;53.672;10.064;2023-01-01T05:55:59;14.60;99.90
3275;DHT22;1649;53.672;10.064;2023-01-01T05:58:26;14.50;99.90
3275;DHT22;1649;53.672;10.064;2023-01-01T06:00:52;14.50;99.90
3275;DHT22;1649;53.672;10.064;2023-01-01T06:03:18;14.50;99.90
3275;DHT22;1649;53.672;10.064;2023-01-01T06:05:44;14.50;99.90
3275;DHT22;1649;53.672;10.064;2023-01-01T06:08:09;14.50;99.90
3275;DHT22;1649;53.672;10.064;2023-01-01T06:10:35;14.60;99.90
3275;DHT22;1649;53.672;10.064;2023-01-01T06:13:00;14.60;99.90
3275;DHT22;1649;53.672;10.064;2023-01-01T06:15:27;14.60;99.90
3275;DHT22;1649;53.672;10.064;2023-01-01T06:17:52;14.60;99.90
3275;DHT22;1649;53.672;10.064;2023-01-01T06:20:18;14.60;99.90
3275;DHT22;1649;53.672;10.064;2023-01-01T06:22:44;14.60;99.90
3275;DHT22;1649;53.672;10.064;2023-01-01T06:25:10;14.60;99.90
3275;DHT22;1649;53.672;10.064;2023-01-01T06:27:36;14.60;99.90
3275;DHT22;1649;53.672;10.064;2023-01-01T06:30:04;14.60;99.90
3275;DHT22;1649;53.672;10.064;2023-01-01T06:32:30;14.60;99.90
3275;DHT22;1649;53.672;10.064;2023-01-01T06:34:55;14.50;99.90
3275;DHT22;1649;53.672;10.064;2023-01-01T06:37:21;14.50;99.90
3275;DHT22;1649;53.672;10.064;2023-01-01T06:39:46;14.50;99.90
3275;DHT22;1649;53.672;10.064;2023-01-01T06:42:12;14.50;99.90
3275;DHT22;1649;53.672;10.064;2023-01-01T06:44:37;14.50;99.90
3275;DHT22;1649;53.672;10.064;2023-01-01T06:47:03;14.60;99.90
3275;DHT22;1649;53.672;10.064;2023-01-01T06:49:28;14.60;99.90
3275;DHT22;1649;53.672;10.064;2023-01-01T06:51:54;14.60;99.90
3275;DHT22;1649;53.672;10.064;2023-01-01T06:54:20;14.60;99.90
3275;DHT22;1649;53.672;10.064;2023-01-01T06:56:45;14.60;99.90
3275;DHT22;1649;53.672;10.064;2023-01-01T06:59:11;14.50;99.90
3275;DHT22;1649;53.672;10.064;2023-01-01T07:01:37;14.40;99.90
3275;DHT22;1649;53.672;10.064;2023-01-01T07:04:07;14.50;99.90
3275;DHT22;1649;53.672;10.064;2023-01-01T07:06:35;14.30;99.90
3275;DHT22;1649;53.672;10.064;2023-01-01T07:09:01;14.40;99.90
3275;DHT22;1649;53.672;10.064;2023-01-01T07:11:27;14.30;99.90
3275;DHT22;1649;53.672;10.064;2023-01-01T07:13:53;14.30;99.90
3275;DHT22;1649;53.672;10.064;2023-01-01T07:16:19;14.30;99.90
3275;DHT22;1649;53.672;10.064;2023-01-01T07:18:45;14.30;99.90
3275;DHT22;1649;53.672;10.064;2023-01-01T07:23:48;14.30;99.90
3275;DHT22;1649;53.672;10.064;2023-01-01T07:26:14;14.20;99.90
3275;DHT22;1649;53.672;10.064;2023-01-01T07:28:39;14.20;99.90
3275;DHT22;1649;53.672;10.064;2023-01-01T07:31:05;14.10;99.90
3275;DHT22;1649;53.672;10.064;2023-01-01T07:33:30;14.10;99.90
3275;DHT22;1649;53.672;10.064;2023-01-01T07:35:56;14.10;99.90
3275;DHT22;1649;53.672;10.064;2023-01-01T07:38:21;14.10;99.90
3275;DHT22;1649;53.672;10.064;2023-01-01T07:40:47;14.10;99.90
3275;DHT22;1649;53.672;10.064;2023-01-01T07:43:12;14.00;99.90
3275;DHT22;1649;53.672;10.064;2023-01-01T07:45:38;14.10;99.90
3275;DHT22;1649;53.672;10.064;2023-01-01T07:48:04;14.00;99.90
3275;DHT22;1649;53.672;10.064;2023-01-01T07:50:31;14.00;99.90
3275;DHT22;1649;53.672;10.064;2023-01-01T07:52:57;14.00;99.90
3275;DHT22;1649;53.672;10.064;2023-01-01T07:55:23;14.00;99.90
3275;DHT22;1649;53.672;10.064;2023-01-01T07:57:48;14.00;99.90
3275;DHT22;1649;53.672;10.064;2023-01-01T08:00:17;14.00;99.90
3275;DHT22;1649;53.672;10.064;2023-01-01T08:02:43;14.00;99.90
3275;DHT22;1649;53.672;10.064;2023-01-01T08:05:09;14.00;99.90
3275;DHT22;1649;53.672;10.064;2023-01-01T08:07:35;14.00;99.90
3275;DHT22;1649;53.672;10.064;2023-01-01T08:10:00;14.00;99.90
3275;DHT22;1649;53.672;10.064;2023-01-01T08:12:26;14.10;99.90
3275;DHT22;1649;53.672;10.064;2023-01-01T08:14:52;14.10;99.90
3275;DHT22;1649;53.672;10.064;2023-01-01T08:17:17;14.10;99.90
3275;DHT22;1649;53.672;10.064;2023-01-01T08:19:43;14.10;99.90
3275;DHT22;1649;53.672;10.064;2023-01-01T08:22:13;14.10;99.90
3275;DHT22;1649;53.672;10.064;2023-01-01T08:24:39;14.10;99.90
3275;DHT22;1649;53.672;10.064;2023-01-01T08:27:04;14.10;99.90
3275;DHT22;1649;53.672;10.064;2023-01-01T08:29:30;14.10;99.90
3275;DHT22;1649;53.672;10.064;2023-01-01T08:31:55;14.10;99.90
3275;DHT22;1649;53.672;10.064;2023-01-01T08:34:21;14.00;99.90
3275;DHT22;1649;53.672;10.064;2023-01-01T08:36:46;14.00;99.90
3275;DHT22;1649;53.672;10.064;2023-01-01T08:39:12;14.00;99.90
3275;DHT22;1649;53.672;10.064;2023-01-01T08:41:37;14.00;99.90
3275;DHT22;1649;53.672;10.064;2023-01-01T08:44:03;14.00;99.90
3275;DHT22;1649;53.672;10.064;2023-01-01T08:46:28;14.00;99.90
3275;DHT22;1649;53.672;10.064;2023-01-01T08:48:54;14.00;99.90
3275;DHT22;1649;53.672;10.064;2023-01-01T08:51:19;14.00;99.90
3275;DHT22;1649;53.672;10.064;2023-01-01T08:53:45;14.00;99.90
3275;DHT22;1649;53.672;10.064;2023-01-01T08:56:11;14.00;99.90
3275;DHT22;1649;53.672;10.064;2023-01-01T08:58:38;13.90;99.90
3275;DHT22;1649;53.672;10.064;2023-01-01T09:01:05;14.00;99.90
3275;DHT22;1649;53.672;10.064;2023-01-01T09:03:31;14.00;99.90
3275;DHT22;1649;53.672;10.064;2023-01-01T09:05:57;14.00;99.90
3275;DHT22;1649;53.672;10.064;2023-01-01T09:08:23;14.00;99.90
3275;DHT22;1649;53.672;10.064;2023-01-01T09:10:49;14.00;99.90
3275;DHT22;1649;53.672;10.064;2023-01-01T09:13:15;13.90;99.90
3275;DHT22;1649;53.672;10.064;2023-01-01T09:15:42;13.90;99.90
3275;DHT22;1649;53.672;10.064;2023-01-01T09:18:08;13.90;99.90
3275;DHT22;1649;53.672;10.064;2023-01-01T09:20:34;14.00;99.90
3275;DHT22;1649;53.672;10.064;2023-01-01T09:23:00;14.00;99.90
3275;DHT22;1649;53.672;10.064;2023-01-01T09:25:25;13.90;99.90
3275;DHT22;1649;53.672;10.064;2023-01-01T09:28:09;13.90;99.90
3275;DHT22;1649;53.672;10.064;2023-01-01T09:30:35;13.80;99.90
3275;DHT22;1649;53.672;10.064;2023-01-01T09:33:01;13.70;99.90
3275;DHT22;1649;53.672;10.064;2023-01-01T09:35:28;13.60;99.90
3275;DHT22;1649;53.672;10.064;2023-01-01T09:37:53;13.60;99.90
3275;DHT22;1649;53.672;10.064;2023-01-01T09:40:27;13.60;99.90
3275;DHT22;1649;53.672;10.064;2023-01-01T09:46:00;13.70;99.90
3275;DHT22;1649;53.672;10.064;2023-01-01T09:48:28;13.80;99.90
3275;DHT22;1649;53.672;10.064;2023-01-01T09:50:55;13.80;99.90
3275;DHT22;1649;53.672;10.064;2023-01-01T09:53:36;13.80;99.90
3275;DHT22;1649;53.672;10.064;2023-01-01T09:56:12;13.70;99.90
3275;DHT22;1649;53.672;10.064;2023-01-01T09:58:39;13.80;99.90
3275;DHT22;1649;53.672;10.064;2023-01-01T10:01:16;13.70;99.90
3275;DHT22;1649;53.672;10.064;2023-01-01T10:03:59;13.70;99.90
3275;DHT22;1649;53.672;10.064;2023-01-01T10:06:28;13.70;99.90
3275;DHT22;1649;53.672;10.064;2023-01-01T10:11:58;13.70;99.90
3275;DHT22;1649;53.672;10.064;2023-01-01T10:14:48;13.70;99.90
3275;DHT22;1649;53.672;10.064;2023-01-01T10:17:24;13.70;99.90
3275;DHT22;1649;53.672;10.064;2023-01-01T10:19:59;13.70;99.90
3275;DHT22;1649;53.672;10.064;2023-01-01T10:22:32;13.70;99.90
3275;DHT22;1649;53.672;10.064;2023-01-01T10:25:17;13.80;99.90
3275;DHT22;1649;53.672;10.064;2023-01-01T10:28:04;13.80;99.90
3275;DHT22;1649;53.672;10.064;2023-01-01T10:30:31;13.80;99.90
3275;DHT22;1649;53.672;10.064;2023-01-01T10:32:58;13.80;99.90
3275;DHT22;1649;53.672;10.064;2023-01-01T10:35:43;13.80;99.90
3275;DHT22;1649;53.672;10.064;2023-01-01T10:38:23;13.70;99.90
3275;DHT22;1649;53.672;10.064;2023-01-01T10:40:55;13.80;99.90
3275;DHT22;1649;53.672;10.064;2023-01-01T10:43:22;13.90;99.90
3275;DHT22;1649;53.672;10.064;2023-01-01T10:45:52;13.90;99.90
3275;DHT22;1649;53.672;10.064;2023-01-01T10:48:24;14.10;99.90
3275;DHT22;1649;53.672;10.064;2023-01-01T10:51:13;14.20;99.90
3275;DHT22;1649;53.672;10.064;2023-01-01T10:53:42;14.50;99.90
3275;DHT22;1649;53.672;10.064;2023-01-01T10:56:19;14.70;99.90
3275;DHT22;1649;53.672;10.064;2023-01-01T10:58:56;14.80;99.90
3275;DHT22;1649;53.672;10.064;2023-01-01T11:01:31;14.80;99.90
3275;DHT22;1649;53.672;10.064;2023-01-01T11:06:36;14.70;99.90
3275;DHT22;1649;53.672;10.064;2023-01-01T11:09:25;14.50;99.90
3275;DHT22;1649;53.672;10.064;2023-01-01T11:12:01;14.40;99.90
3275;DHT22;1649;53.672;10.064;2023-01-01T11:14:28;14.20;99.90
3275;DHT22;1649;53.672;10.064;2023-01-01T11:16:54;14.20;99.90
3275;DHT22;1649;53.672;10.064;2023-01-01T11:19:28;14.20;99.60
3275;DHT22;1649;53.672;10.064;2023-01-01T11:21:54;14.10;99.90
3275;DHT22;1649;53.672;10.064;2023-01-01T11:24:23;14.10;99.90
3275;DHT22;1649;53.672;10.064;2023-01-01T11:26:50;14.00;99.90
3275;DHT22;1649;53.672;10.064;2023-01-01T11:29:23;13.90;99.90
3275;DHT22;1649;53.672;10.064;2023-01-01T11:31:49;14.00;99.90
3275;DHT22;1649;53.672;10.064;2023-01-01T11:34:35;14.00;99.90
3275;DHT22;1649;53.672;10.064;2023-01-01T11:37:10;14.00;99.90
3275;DHT22;1649;53.672;10.064;2023-01-01T11:39:43;13.90;99.90
3275;DHT22;1649;53.672;10.064;2023-01-01T11:42:22;14.00;99.90
3275;DHT22;1649;53.672;10.064;2023-01-01T11:44:52;14.00;99.90
3275;DHT22;1649;53.672;10.064;2023-01-01T11:47:34;14.00;99.90
3275;DHT22;1649;53.672;10.064;2023-01-01T11:52:40;14.00;99.90
3275;DHT22;1649;53.672;10.064;2023-01-01T11:58:21;13.90;99.90
3275;DHT22;1649;53.672;10.064;2023-01-01T12:00:51;14.00;99.90
3275;DHT22;1649;53.672;10.064;2023-01-01T12:03:29;13.90;99.90
3275;DHT22;1649;53.672;10.064;2023-01-01T12:08:38;13.80;99.90
3275;DHT22;1649;53.672;10.064;2023-01-01T12:11:20;13.70;99.90
3275;DHT22;1649;53.672;10.064;2023-01-01T12:13:59;13.60;99.90
3275;DHT22;1649;53.672;10.064;2023-01-01T12:16:47;13.60;99.90
3275;DHT22;1649;53.672;10.064;2023-01-01T12:19:38;13.60;99.90
3275;DHT22;1649;53.672;10.064;2023-01-01T12:22:14;13.60;99.90
3275;DHT22;1649;53.672;10.064;2023-01-01T12:24:40;13.60;99.90
3275;DHT22;1649;53.672;10.064;2023-01-01T12:30:09;13.60;99.90
3275;DHT22;1649;53.672;10.064;2023-01-01T12:35:26;13.60;99.90
3275;DHT22;1649;53.672;10.064;2023-01-01T12:38:13;13.60;99.90
3275;DHT22;1649;53.672;10.064;2023-01-01T12:41:08;13.60;99.90
3275;DHT22;1649;53.672;10.064;2023-01-01T12:43:49;13.80;99.90
3275;DHT22;1649;53.672;10.064;2023-01-01T12:52:45;13.80;99.90
3275;DHT22;1649;53.672;10.064;2023-01-01T12:55:22;13.80;99.90
3275;DHT22;1649;53.672;10.064;2023-01-01T12:57:56;13.80;99.90
3275;DHT22;1649;53.672;10.064;2023-01-01T13:00:24;13.80;99.90
3275;DHT22;1649;53.672;10.064;2023-01-01T13:02:56;13.80;99.90
3275;DHT22;1649;53.672;10.064;2023-01-01T13:08:03;13.90;99.90
3275;DHT22;1649;53.672;10.064;2023-01-01T13:10:46;13.90;99.90
3275;DHT22;1649;53.672;10.064;2023-01-01T13:13:13;13.90;99.90
3275;DHT22;1649;53.672;10.064;2023-01-01T13:18:15;13.60;99.90
3275;DHT22;1649;53.672;10.064;2023-01-01T13:20:53;13.50;99.90
3275;DHT22;1649;53.672;10.064;2023-01-01T13:37:28;13.20;99.90
3275;DHT22;1649;53.672;10.064;2023-01-01T13:45:37;13.00;99.90
3275;DHT22;1649;53.672;10.064;2023-01-01T13:48:33;13.00;99.90
3275;DHT22;1649;53.672;10.064;2023-01-01T13:54:16;12.80;99.90
3275;DHT22;1649;53.672;10.064;2023-01-01T13:57:01;12.70;99.90
3275;DHT22;1649;53.672;10.064;2023-01-01T14:07:41;12.50;99.90
3275;DHT22;1649;53.672;10.064;2023-01-01T14:12:51;12.40;99.90
3275;DHT22;1649;53.672;10.064;2023-01-01T14:16:04;12.30;99.90
3275;DHT22;1649;53.672;10.064;2023-01-01T14:18:47;12.30;99.90
3275;DHT22;1649;53.672;10.064;2023-01-01T14:21:32;12.20;99.90
3275;DHT22;1649;53.672;10.064;2023-01-01T14:24:02;12.20;99.90
3275;DHT22;1649;53.672;10.064;2023-01-01T14:26:30;12.10;99.90
3275;DHT22;1649;53.672;10.064;2023-01-01T14:28:58;12.10;99.90
3275;DHT22;1649;53.672;10.064;2023-01-01T14:31:29;12.10;99.90
3275;DHT22;1649;53.672;10.064;2023-01-01T14:33:56;12.00;99.90
3275;DHT22;1649;53.672;10.064;2023-01-01T14:36:24;12.00;99.90
3275;DHT22;1649;53.672;10.064;2023-01-01T14:38:52;12.00;99.90
3275;DHT22;1649;53.672;10.064;2023-01-01T14:41:35;12.00;99.90
3275;DHT22;1649;53.672;10.064;2023-01-01T14:44:15;11.90;99.90
3275;DHT22;1649;53.672;10.064;2023-01-01T14:46:45;11.90;99.90
3275;DHT22;1649;53.672;10.064;2023-01-01T14:49:23;11.80;99.90
3275;DHT22;1649;53.672;10.064;2023-01-01T14:51:59;11.80;99.90
3275;DHT22;1649;53.672;10.064;2023-01-01T14:54:30;11.70;99.90
3275;DHT22;1649;53.672;10.064;2023-01-01T14:56:57;11.70;99.90
3275;DHT22;1649;53.672;10.064;2023-01-01T14:59:29;11.70;99.90
3275;DHT22;1649;53.672;10.064;2023-01-01T15:02:08;11.60;99.90
3275;DHT22;1649;53.672;10.064;2023-01-01T15:04:37;11.60;99.90
3275;DHT22;1649;53.672;10.064;2023-01-01T15:07:03;11.50;99.90
3275;DHT22;1649;53.672;10.064;2023-01-01T15:09:30;11.50;99.90
3275;DHT22;1649;53.672;10.064;2023-01-01T15:11:57;11.50;99.90
3275;DHT22;1649;53.672;10.064;2023-01-01T15:14:35;11.50;99.90
3275;DHT22;1649;53.672;10.064;2023-01-01T15:17:06;11.40;99.90
3275;DHT22;1649;53.672;10.064;2023-01-01T15:19:33;11.40;99.90
3275;DHT22;1649;53.672;10.064;2023-01-01T15:22:00;11.40;99.90
3275;DHT22;1649;53.672;10.064;2023-01-01T15:24:26;11.30;99.90
3275;DHT22;1649;53.672;10.064;2023-01-01T15:26:57;11.30;99.90
3275;DHT22;1649;53.672;10.064;2023-01-01T15:29:38;11.20;99.90
3275;DHT22;1649;53.672;10.064;2023-01-01T15:32:09;11.10;99.90
3275;DHT22;1649;53.672;10.064;2023-01-01T15:34:49;11.10;99.90
3275;DHT22;1649;53.672;10.064;2023-01-01T15:37:31;11.10;99.90
3275;DHT22;1649;53.672;10.064;2023-01-01T15:40:00;11.10;99.90
3275;DHT22;1649;53.672;10.064;2023-01-01T15:42:36;11.10;99.90
3275;DHT22;1649;53.672;10.064;2023-01-01T15:45:27;11.10;99.90
3275;DHT22;1649;53.672;10.064;2023-01-01T15:47:59;11.00;99.90
3275;DHT22;1649;53.672;10.064;2023-01-01T15:56:04;11.10;99.90
3275;DHT22;1649;53.672;10.064;2023-01-01T16:01:18;11.00;99.90
3275;DHT22;1649;53.672;10.064;2023-01-01T16:03:45;11.10;99.90
3275;DHT22;1649;53.672;10.064;2023-01-01T16:06:15;11.00;99.90
3275;DHT22;1649;53.672;10.064;2023-01-01T16:08:42;11.00;99.90
3275;DHT22;1649;53.672;10.064;2023-01-01T16:11:07;11.00;99.90
3275;DHT22;1649;53.672;10.064;2023-01-01T16:13:33;10.90;99.90
3275;DHT22;1649;53.672;10.064;2023-01-01T16:16:00;10.90;99.90
3275;DHT22;1649;53.672;10.064;2023-01-01T16:18:34;10.90;99.90
3275;DHT22;1649;53.672;10.064;2023-01-01T16:21:02;10.90;99.90
3275;DHT22;1649;53.672;10.064;2023-01-01T16:23:27;10.90;99.90
3275;DHT22;1649;53.672;10.064;2023-01-01T16:25:53;11.00;99.90
3275;DHT22;1649;53.672;10.064;2023-01-01T16:28:18;10.90;99.90
3275;DHT22;1649;53.672;10.064;2023-01-01T16:30:45;10.90;99.90
3275;DHT22;1649;53.672;10.064;2023-01-01T16:33:15;10.90;99.90
3275;DHT22;1649;53.672;10.064;2023-01-01T16:35:41;11.00;99.90
3275;DHT22;1649;53.672;10.064;2023-01-01T16:38:07;11.00;99.90
3275;DHT22;1649;53.672;10.064;2023-01-01T16:40:33;10.90;99.90
3275;DHT22;1649;53.672;10.064;2023-01-01T16:42:58;11.00;99.90
3275;DHT22;1649;53.672;10.064;2023-01-01T16:45:24;11.00;99.90
3275;DHT22;1649;53.672;10.064;2023-01-01T16:47:49;11.00;99.90
3275;DHT22;1649;53.672;10.064;2023-01-01T16:50:15;11.00;99.90
3275;DHT22;1649;53.672;10.064;2023-01-01T16:52:41;11.00;99.90
3275;DHT22;1649;53.672;10.064;2023-01-01T16:55:06;11.10;99.90
3275;DHT22;1649;53.672;10.064;2023-01-01T16:57:32;11.00;99.90
3275;DHT22;1649;53.672;10.064;2023-01-01T16:59:57;11.10;99.90
3275;DHT22;1649;53.672;10.064;2023-01-01T17:02:23;11.00;99.90
3275;DHT22;1649;53.672;10.064;2023-01-01T17:04:48;11.00;99.90
3275;DHT22;1649;53.672;10.064;2023-01-01T17:07:14;11.10;99.90
3275;DHT22;1649;53.672;10.064;2023-01-01T17:09:41;11.10;99.90
3275;DHT22;1649;53.672;10.064;2023-01-01T17:12:07;11.00;99.90
3275;DHT22;1649;53.672;10.064;2023-01-01T17:14:32;11.10;99.90
3275;DHT22;1649;53.672;10.064;2023-01-01T17:16:58;11.10;99.90
3275;DHT22;1649;53.672;10.064;2023-01-01T17:19:23;11.10;99.90
3275;DHT22;1649;53.672;10.064;2023-01-01T17:21:49;11.10;99.90
3275;DHT22;1649;53.672;10.064;2023-01-01T17:24:16;11.10;99.90
3275;DHT22;1649;53.672;10.064;2023-01-01T17:26:41;11.10;99.90
3275;DHT22;1649;53.672;10.064;2023-01-01T17:29:07;11.10;99.90
3275;DHT22;1649;53.672;10.064;2023-01-01T17:31:33;11.10;99.90
3275;DHT22;1649;53.672;10.064;2023-01-01T17:33:59;11.20;99.90
3275;DHT22;1649;53.672;10.064;2023-01-01T17:36:24;11.20;99.90
3275;DHT22;1649;53.672;10.064;2023-01-01T17:38:53;11.20;99.90
3275;DHT22;1649;53.672;10.064;2023-01-01T17:41:19;11.20;99.90
3275;DHT22;1649;53.672;10.064;2023-01-01T17:43:46;11.20;99.90
3275;DHT22;1649;53.672;10.064;2023-01-01T17:46:23;11.20;99.90
3275;DHT22;1649;53.672;10.064;2023-01-01T17:48:50;11.10;99.90
3275;DHT22;1649;53.672;10.064;2023-01-01T17:51:17;11.20;99.90